Pagrindinis puslapis
METAR-TAF:

METAR-TAF

Oro uostai :

Dumas, Teksasas, Jungtinės Amerikos Valstijos

platuma: 35-51-28N, ilguma: 102-00-47W, Aukštis: 1129 m

Dabartinis oras

Ataskaita buvo paskelbta 26 minutes, ne 11:15 UTC
Vėjas 4 kt iš Pietų/Pietvakarių
Temperatūra 15°C
Drėgmė 72%
Slėgis 1026 hPa
Matomumas: 16.1 km
Giedras dangus

METAR: KDUX 291115Z AUTO 20004KT 10SM CLR 15/10 A3029 RMK AO2 T01510099

Laikas: 06:41 (11:41 UTC)


TAF: trūkstamas

Orai ataskaitas ir orų prognozės (METAR, TAF).

turimą stotys yra geltonos ir raudonos taškus žemėlapyje.

Perkelti pele per norėdami pamatyti stoties vardą.

Tada spustelėkite, norėdami matyti oro stebėjimo ir prognozės.

Norėdami pakeisti žemėlapį: spustelėkite ant žalios mygtukų su juodo kryžiaus žemyn,; žalią mygtuką su brūkšneliu, jei norite nutolinti; arba žalių rodyklių gretimoms žemėlapius.


METAR-TAF: